Terminal Aerodrome Forecast
Issued by NWS Missoula, MT

Home | Current Version | Previous Version | Text Only | Print | Product List | Glossary On
Versions: 1 2 3 4 5 6 7 8 9 10 11 12
069
FTUS45 KMSO 050525
TAFBTM
TAF
KBTM 050525Z 0506/0606 16006KT P6SM SCT150
     FM052000 17010G17KT P6SM BKN150
     FM060000 18012G20KT P6SM VCTS SCT050CB BKN150=

USA.gov is the U.S. government's official web portal to all federal, state and local government web resources and services.